x

South Hatteras - 225 South Of Cape Hatteras (41002) Wave Buoy

8:50 - Fri 24th Feb 2017 All times are EST. -5 hours from GMT.

  • Sig Wave height 12.5ft
  • Swell Direction
  • Peak Period 9s
  • Average Period 7s
  • Wind
    27mph, 31mph gusts
  • Sea Temp 70°f
  • Luft Temp 68°f
  • Sea Pressure 1007.3mb
  • South Hatteras - 225 South Of Cape Hatteras
  • South Hatteras - 225 South Of Cape Hatteras

More Historic Weather Station data

Upgrade to MSW Pro to gain access to the past 30 days of data for over 8000 Wavebouys and Weather Stations around the globe.

Join Pro

Comparision Forecast

View Surf forecast
   
Fr 02/24 8:50 12.5ft 9s 7s 27 31 mph 1007.3mb 70f 68f
7:50 13ft 9s 7s 29 34 mph 1007.1mb 70f 68f
6:50 12.5ft 10s 7s 29 36 mph 1007.1mb 70f 69f
5:50 12.5ft 10s 7s 27 29 mph 1007.6mb 70f 69f
4:50 11ft 9s 7s 27 31 mph 1007.7mb 69f 69f
3:50 12ft 8s 7s 27 34 mph 1007.3mb 69f 69f
2:50 11ft 8s 6s 25 31 mph 1007.8mb 69f 68f
1:50 13ft 9s 7s 22 29 mph 1008.7mb 69f 69f
12:50 12ft 8s 7s 29 34 mph 1008.1mb 69f 69f
Do 02/23 11:50 12ft 9s 7s 29 38 mph 1008.4mb 69f 69f
10:50 11.5ft 10s 7s 29 36 mph 1009.5mb 69f 68f
9:50 11ft 8s 7s 27 31 mph 1009.9mb 69f 68f
8:50 10.5ft 9s 7s 25 31 mph 1010.8mb 69f 67f
7:50 9ft 8s 6s 27 34 mph 1010.2mb 69f 68f
6:50 9ft 8s 6s 27 31 mph 1009.8mb 70f 69f
5:50 9ft 8s 6s 22 27 mph 1009.8mb 70f 68f
4:50 9ft 8s 6s 27 31 mph 1010mb 70f 69f
3:50 9ft 8s 6s 25 31 mph 1010.1mb 70f 69f
2:50 8.5ft 7s 6s 25 29 mph 1010.1mb 70f 69f
1:50 8ft 7s 6s 25 29 mph 1010.4mb 70f 69f
12:50 8ft 7s 6s 22 27 mph 1011.1mb 70f 69f
11:50 7.5ft 7s 6s 22 27 mph 1012mb 70f 69f
10:50 7ft 7s 6s 22 27 mph 1012.8mb 70f 69f
9:50 7ft 7s 6s 25 29 mph 1013.1mb 70f 69f
8:50 7ft 6s 5s 25 29 mph 1012.5mb 70f 68f
7:50 6.5ft 6s 5s 25 29 mph 1012.4mb 70f 68f
6:50 6ft 6s 5s 22 27 mph 1012.2mb 70f 68f
5:50 6ft 6s 5s 22 27 mph 1011.6mb 70f 67f
4:50 6ft 6s 5s 22 29 mph 1011mb 70f 67f
3:50 6ft 6s 5s 25 27 mph 1011.3mb 70f 67f
2:50 6ft 6s 5s 22 27 mph 1011.7mb 70f 67f
1:50 5.5ft 11s 5s 25 29 mph 1011.8mb 70f 67f
12:50 5.5ft 10s 5s 22 27 mph 1012.8mb 70f 67f
Mi 02/22 11:50 5.5ft 9s 5s 22 25 mph 1013.6mb 70f 67f
10:50 5ft 9s 5s 22 25 mph 1013.9mb 70f 67f
9:50 5ft 11s 5s 20 25 mph 1014.5mb 70f 67f
8:50 5ft 10s 6s 20 22 mph 1014.8mb 70f 67f
7:50 5.5ft 10s 6s 18 22 mph 1014.6mb 70f 66f
6:50 5ft 11s 6s 18 20 mph 1014.5mb 70f 66f
5:50 5ft 9s 6s 16 20 mph 1014.6mb 70f 66f
4:50 5ft 11s 6s 16 20 mph 1014.7mb 70f 66f
3:50 5ft 9s 6s 16 20 mph 1014.6mb 70f 65f
2:50 4.5ft 9s 6s 16 18 mph 1014.8mb 70f 65f
1:50 5ft 9s 6s 16 18 mph 1015.1mb 70f 65f
12:50 4.5ft 9s 6s 16 22 mph 1016mb 70f 65f
11:50 4.5ft 10s 6s 16 20 mph 1016.4mb 70f 64f
10:50 5ft 8s 6s 13 16 mph 1017.2mb 70f 65f
9:50 4.5ft 8s 6s 16 20 mph 1017.3mb 71f 65f
8:50 5ft 9s 6s 13 16 mph 1017.6mb 71f 65f
7:50 4.5ft 9s 6s 11 13 mph 1017.5mb 71f 64f
5:50 4.5ft 8s 5s 13 18 mph 1017.2mb 71f 64f
4:50 4.5ft 8s 6s 13 18 mph 1017.1mb 71f 64f
3:50 5ft 8s 6s 11 18 mph 1017.1mb 71f 64f
2:50 4.5ft 8s 6s 18 22 mph 1016.8mb 71f 64f
1:50 5ft 8s 5s 11 13 mph 1018mb 71f 64f
12:50 5ft 8s 6s 18 22 mph 1018.3mb 71f 64f
Di 02/21 11:50 5ft 8s 6s 13 18 mph 1019.1mb 71f 64f
10:50 5ft 8s 6s 16 20 mph 1019.1mb 71f 64f
9:50 4.5ft 8s 6s 13 18 mph 1020.1mb 71f 64f
8:50 5ft 8s 6s 13 16 mph 1020.3mb 71f 64f
7:50 4.5ft 8s 5s 16 18 mph 1020.5mb 71f 64f
6:50 4.5ft 8s 5s 16 20 mph 1020.2mb 71f 65f
5:50 5ft 7s 5s 13 18 mph 1020.4mb 71f 65f
4:50 5ft 8s 5s 16 18 mph 1020mb 71f 64f
3:50 4.5ft 8s 5s 13 18 mph 1019.8mb 71f 64f
2:50 5ft 8s 5s 13 22 mph 1020mb 71f 64f
1:50 5.5ft 7s 5s 13 18 mph 1020.3mb 71f 64f
12:50 5ft 7s 5s 16 20 mph 1020.9mb 71f 65f
11:50 5ft 7s 5s 16 20 mph 1021.5mb 71f 65f
10:50 5ft 6s 5s 18 22 mph 1022mb 70f 66f
9:50 5ft 7s 5s 18 22 mph 1022.1mb 70f 66f
8:50 5ft 7s 5s 18 20 mph 1021.9mb 71f 66f
7:50 5.5ft 7s 5s 16 20 mph 1021.7mb 71f 67f
6:50 5ft 6s 5s 16 20 mph 1021.3mb 71f 66f
5:50 5ft 6s 5s 16 22 mph 1020.8mb 71f 66f
4:50 5ft 6s 5s 16 22 mph 1020.5mb 71f 66f
3:50 5ft 6s 5s 18 22 mph 1020.2mb 71f 66f
2:50 4.5ft 6s 5s 20 25 mph 1019.9mb 71f 67f
1:50 4.5ft 7s 5s 18 22 mph 1020.1mb 71f 68f
12:50 4.5ft 6s 5s 18 22 mph 1020mb 71f 68f
Mo 02/20 11:50 4.5ft 6s 5s 18 22 mph 1020.2mb 71f 69f
10:50 4.5ft 6s 5s 18 22 mph 1020.1mb 71f 69f
9:50 4.5ft 6s 5s 18 22 mph 1020.3mb 71f 69f
8:50 4.5ft 6s 5s 16 20 mph 1020.3mb 71f 69f
7:50 4.5ft 7s 5s 20 22 mph 1020.1mb 71f 70f
6:50 4.5ft 7s 5s 20 22 mph 1019.8mb 71f 70f
5:50 4.5ft 7s 5s 20 22 mph 1019.4mb 71f 70f
4:50 5ft 6s 5s 18 20 mph 1018.9mb 71f 70f
3:50 5ft 7s 5s 18 20 mph 1018.5mb 71f 70f